createdAt,value
2023-11-23T00:00:55.840Z,27.27
2023-11-23T00:03:28.975Z,25.83
2023-11-23T00:06:03.914Z,26.38
2023-11-23T00:08:36.983Z,26.02
2023-11-23T00:11:11.021Z,25.15
2023-11-23T00:13:44.408Z,25.08
2023-11-23T00:16:17.573Z,26.67
2023-11-23T00:18:50.718Z,24.63
2023-11-23T00:21:25.202Z,26.17
2023-11-23T00:23:58.291Z,25.55
2023-11-23T00:26:32.792Z,24.75
2023-11-23T00:29:07.600Z,25.55
2023-11-23T00:31:40.633Z,26.38
2023-11-23T00:34:13.780Z,25.05
2023-11-23T00:36:48.226Z,23.33
2023-11-23T00:39:21.670Z,24.67
2023-11-23T00:41:54.763Z,23.83
2023-11-23T00:44:33.835Z,23.23
2023-11-23T00:47:13.043Z,23.00
2023-11-23T00:49:55.168Z,21.67
2023-11-23T00:52:36.888Z,23.33
2023-11-23T00:55:15.551Z,23.10
2023-11-23T00:57:56.735Z,22.52
2023-11-23T01:00:51.200Z,21.13
2023-11-23T01:03:26.072Z,21.85
2023-11-23T01:06:01.571Z,20.27
2023-11-23T01:08:40.421Z,21.55
2023-11-23T01:11:14.783Z,19.63
2023-11-23T01:13:56.291Z,20.25
2023-11-23T01:16:31.198Z,21.40
2023-11-23T01:19:11.066Z,20.73
2023-11-23T01:21:48.363Z,20.00
2023-11-23T01:24:25.154Z,18.15
2023-11-23T01:26:58.564Z,19.17
2023-11-23T01:29:35.501Z,18.30
2023-11-23T01:32:10.676Z,17.92
2023-11-23T01:34:43.850Z,19.80
2023-11-23T01:37:24.542Z,17.70
2023-11-23T01:40:05.551Z,17.10
2023-11-23T01:43:00.425Z,16.60
2023-11-23T01:45:41.535Z,17.48
2023-11-23T01:48:17.774Z,17.15
2023-11-23T01:50:52.491Z,17.40
2023-11-23T01:53:53.620Z,16.83
2023-11-23T01:56:52.086Z,16.00
2023-11-23T01:59:35.066Z,15.52
2023-11-23T02:02:10.683Z,17.88
2023-11-23T02:04:49.980Z,17.10
2023-11-23T02:07:30.895Z,15.95
2023-11-23T02:10:05.575Z,16.15
2023-11-23T02:12:49.917Z,16.67
2023-11-23T02:15:26.149Z,15.82
2023-11-23T02:18:14.182Z,16.73
2023-11-23T02:21:00.449Z,15.18
2023-11-23T02:23:58.728Z,16.00
2023-11-23T02:26:38.728Z,14.13
2023-11-23T02:29:13.745Z,14.43
2023-11-23T02:32:20.635Z,14.93
2023-11-23T02:34:54.154Z,15.02
2023-11-23T02:37:54.174Z,15.85
2023-11-23T02:40:29.546Z,14.80
2023-11-23T02:43:16.270Z,14.23
2023-11-23T02:45:54.660Z,15.57
2023-11-23T02:48:39.489Z,15.35
2023-11-23T02:51:19.756Z,13.20
2023-11-23T02:54:00.111Z,14.00
2023-11-23T02:56:33.709Z,14.07
2023-11-23T03:01:46.343Z,13.45
2023-11-23T03:04:24.029Z,13.15
2023-11-23T03:06:59.461Z,14.50
2023-11-23T03:09:42.950Z,13.77
2023-11-23T03:12:19.263Z,14.07
2023-11-23T03:15:01.506Z,14.00
2023-11-23T03:17:43.348Z,12.57
2023-11-23T03:20:35.422Z,12.60
2023-11-23T03:23:15.882Z,13.43
2023-11-23T03:25:57.457Z,12.32
2023-11-23T03:28:46.109Z,12.73
2023-11-23T03:31:35.638Z,13.35
2023-11-23T03:34:08.886Z,12.52
2023-11-23T03:36:52.320Z,12.88
2023-11-23T03:40:08.937Z,13.60
2023-11-23T03:42:44.657Z,12.82
2023-11-23T03:45:19.893Z,11.88
2023-11-23T03:47:57.796Z,11.50
2023-11-23T03:50:34.084Z,11.32
2023-11-23T03:53:17.314Z,12.38
2023-11-23T03:55:58.112Z,11.73
2023-11-23T03:58:37.120Z,11.75
2023-11-23T04:01:17.895Z,11.90
2023-11-23T04:03:58.407Z,12.13
2023-11-23T04:06:31.828Z,12.07
2023-11-23T04:09:09.467Z,11.32
2023-11-23T04:11:55.688Z,10.63
2023-11-23T04:14:32.280Z,11.75
2023-11-23T04:17:11.953Z,10.95
2023-11-23T04:19:59.567Z,11.20
2023-11-23T04:22:46.789Z,10.90
2023-11-23T04:25:22.066Z,10.82
2023-11-23T04:28:01.259Z,11.30
2023-11-23T04:30:40.675Z,10.45
2023-11-23T04:33:14.394Z,10.73
2023-11-23T04:35:52.221Z,9.95
2023-11-23T04:38:36.745Z,9.85
2023-11-23T04:44:06.701Z,10.05
2023-11-23T04:46:42.674Z,10.23
2023-11-23T04:49:18.511Z,10.35
2023-11-23T04:52:10.193Z,10.27
2023-11-23T04:55:09.350Z,9.82
2023-11-23T04:57:43.089Z,11.13
2023-11-23T05:00:17.171Z,10.45
2023-11-23T05:02:50.330Z,10.85
2023-11-23T05:05:23.449Z,11.30
2023-11-23T05:07:57.918Z,10.85
2023-11-23T05:10:30.991Z,11.27
2023-11-23T05:13:05.043Z,10.60
2023-11-23T05:15:38.107Z,10.85
2023-11-23T05:18:11.287Z,10.75
2023-11-23T05:20:44.500Z,10.02
2023-11-23T05:23:18.930Z,8.82
2023-11-23T05:25:52.073Z,9.32
2023-11-23T05:28:25.383Z,10.10
2023-11-23T05:30:58.654Z,9.68
2023-11-23T05:33:31.767Z,9.88
2023-11-23T05:36:05.310Z,9.77
2023-11-23T05:38:39.835Z,10.10
2023-11-23T05:41:12.999Z,9.18
2023-11-23T05:43:46.955Z,10.32
2023-11-23T05:46:20.149Z,9.25
2023-11-23T05:48:53.352Z,9.23
2023-11-23T05:51:26.455Z,9.27
2023-11-23T05:54:00.979Z,9.50
2023-11-23T05:56:35.009Z,8.30
2023-11-23T05:59:08.354Z,9.57
2023-11-23T06:01:41.472Z,8.80
2023-11-23T06:04:14.632Z,9.77
2023-11-23T06:06:47.816Z,9.88
2023-11-23T06:09:22.282Z,8.68
2023-11-23T06:11:55.407Z,8.68
2023-11-23T06:14:28.470Z,9.43
2023-11-23T06:17:01.614Z,10.57
2023-11-23T06:19:34.760Z,8.65
2023-11-23T06:22:07.915Z,9.27
2023-11-23T06:24:42.333Z,8.73
2023-11-23T06:27:15.495Z,8.77
2023-11-23T06:29:48.605Z,9.00
2023-11-23T06:32:21.714Z,14.63
2023-11-23T06:34:54.790Z,14.48
2023-11-23T06:37:27.859Z,23.13
2023-11-23T06:40:02.338Z,23.38
2023-11-23T06:42:37.265Z,21.02
2023-11-23T06:45:14.776Z,23.02
2023-11-23T06:47:48.189Z,22.65
2023-11-23T06:50:21.838Z,47.03
2023-11-23T06:52:54.929Z,51.05
2023-11-23T06:55:29.433Z,75.90
2023-11-23T06:58:02.743Z,82.15
2023-11-23T07:00:35.869Z,85.10
2023-11-23T07:03:10.924Z,80.05
2023-11-23T07:05:43.979Z,80.20
2023-11-23T07:08:17.095Z,75.82
2023-11-23T07:10:51.512Z,77.35
2023-11-23T07:13:24.606Z,76.82
2023-11-23T07:16:00.208Z,67.38
2023-11-23T07:18:33.787Z,63.15
2023-11-23T07:21:08.212Z,57.67
2023-11-23T07:23:41.489Z,55.38
2023-11-23T07:26:16.182Z,59.00
2023-11-23T07:28:49.556Z,58.17
2023-11-23T07:31:23.399Z,55.78
2023-11-23T07:33:56.735Z,53.75
2023-11-23T07:36:31.297Z,50.20
2023-11-23T07:39:04.748Z,48.03
2023-11-23T07:41:39.197Z,49.38
2023-11-23T07:44:12.262Z,48.58
2023-11-23T07:46:48.076Z,47.10
2023-11-23T07:49:21.151Z,45.80
2023-11-23T07:51:56.275Z,44.25
2023-11-23T07:54:29.968Z,43.58
2023-11-23T07:59:37.998Z,41.00
2023-11-23T08:02:11.211Z,42.63
2023-11-23T08:04:45.416Z,41.63
2023-11-23T08:07:18.534Z,41.88
2023-11-23T08:09:52.671Z,41.50
2023-11-23T08:12:27.693Z,38.72
2023-11-23T08:15:01.239Z,38.22
2023-11-23T08:17:34.411Z,34.20
2023-11-23T08:20:08.934Z,22.65
2023-11-23T08:22:42.054Z,15.48
2023-11-23T08:25:15.119Z,14.82
2023-11-23T08:27:49.572Z,13.98
2023-11-23T08:30:23.516Z,13.45
2023-11-23T08:33:00.200Z,12.18
2023-11-23T08:35:33.438Z,12.65
2023-11-23T08:38:06.522Z,12.45
2023-11-23T08:40:40.190Z,11.50
2023-11-23T08:43:14.853Z,11.23
2023-11-23T08:45:48.398Z,10.93
2023-11-23T08:48:23.708Z,11.32
2023-11-23T08:50:57.127Z,10.73
2023-11-23T08:53:30.388Z,12.35
2023-11-23T08:56:03.511Z,10.32
2023-11-23T08:58:38.121Z,18.77
2023-11-23T09:01:11.661Z,18.70
2023-11-23T09:03:45.046Z,27.98
2023-11-23T09:06:19.838Z,40.85
2023-11-23T09:08:53.233Z,40.05
2023-11-23T09:11:27.205Z,37.95
2023-11-23T09:14:03.644Z,35.20
2023-11-23T09:16:36.805Z,37.58
2023-11-23T09:19:10.258Z,35.83
2023-11-23T09:21:47.444Z,33.38
2023-11-23T09:24:20.872Z,32.58
2023-11-23T09:26:54.130Z,33.53
2023-11-23T09:29:28.627Z,30.50
2023-11-23T09:32:01.754Z,30.50
2023-11-23T09:34:34.979Z,30.92
2023-11-23T09:37:08.045Z,28.77
2023-11-23T09:39:41.202Z,26.50
2023-11-23T09:42:17.676Z,27.88
2023-11-23T09:44:57.583Z,25.10
2023-11-23T09:47:33.020Z,26.77
2023-11-23T09:50:07.764Z,24.95
2023-11-23T09:52:43.086Z,24.15
2023-11-23T09:55:17.669Z,24.38
2023-11-23T09:57:51.662Z,24.90
2023-11-23T10:00:26.281Z,25.08
2023-11-23T10:02:59.803Z,22.13
2023-11-23T10:05:34.374Z,24.42
2023-11-23T10:08:07.445Z,20.77
2023-11-23T10:10:40.483Z,22.27
2023-11-23T10:13:13.548Z,21.92
2023-11-23T10:15:49.466Z,19.10
2023-11-23T10:18:22.680Z,20.50
2023-11-23T10:20:57.723Z,18.55
2023-11-23T10:23:30.987Z,17.20
2023-11-23T10:26:04.278Z,17.58
2023-11-23T10:28:39.569Z,16.27
2023-11-23T10:31:14.317Z,17.10
2023-11-23T10:33:47.761Z,16.70
2023-11-23T10:36:24.537Z,15.55
2023-11-23T10:38:58.422Z,17.00
2023-11-23T10:44:05.536Z,15.80
2023-11-23T10:46:40.903Z,15.52
2023-11-23T10:49:15.327Z,15.13
2023-11-23T10:51:48.883Z,14.15
2023-11-23T10:54:22.087Z,14.05
2023-11-23T10:56:58.164Z,14.45
2023-11-23T10:59:31.880Z,13.13
2023-11-23T11:02:08.461Z,13.85
2023-11-23T11:04:42.897Z,12.48
2023-11-23T11:07:17.027Z,13.93
2023-11-23T11:10:00.343Z,13.13
2023-11-23T11:12:39.000Z,12.52
2023-11-23T11:15:20.205Z,11.77
2023-11-23T11:18:07.785Z,12.57
2023-11-23T11:20:42.294Z,12.35
2023-11-23T11:23:15.434Z,13.27
2023-11-23T11:25:48.502Z,11.45
2023-11-23T11:28:21.964Z,13.93
2023-11-23T11:31:06.109Z,12.10
2023-11-23T11:36:14.094Z,10.65
2023-11-23T11:41:31.096Z,11.27
2023-11-23T11:44:05.230Z,11.35
2023-11-23T11:46:39.953Z,11.00
2023-11-23T11:49:14.409Z,10.45
2023-11-23T11:51:47.778Z,12.00
2023-11-23T11:54:22.984Z,10.63
2023-11-23T11:56:56.201Z,10.30
2023-11-23T11:59:31.298Z,10.52
2023-11-23T12:02:06.744Z,10.65
2023-11-23T12:04:42.527Z,10.30
2023-11-23T12:07:16.518Z,10.48
2023-11-23T12:09:55.517Z,10.52
2023-11-23T12:12:28.708Z,10.90
2023-11-23T12:15:01.958Z,11.18
2023-11-23T12:17:35.550Z,9.90
2023-11-23T12:20:11.645Z,11.40
2023-11-23T12:22:45.380Z,9.88
2023-11-23T12:30:27.085Z,9.48
2023-11-23T12:33:00.255Z,9.15
2023-11-23T12:35:34.989Z,8.15
2023-11-23T12:38:08.855Z,8.80
2023-11-23T12:40:42.201Z,9.60
2023-11-23T12:43:16.061Z,19.45
2023-11-23T12:45:49.212Z,16.40
2023-11-23T12:48:22.394Z,16.83
2023-11-23T12:50:57.680Z,16.17
2023-11-23T12:53:31.006Z,16.13
2023-11-23T12:56:04.255Z,14.45
2023-11-23T12:58:39.072Z,15.73
2023-11-23T13:01:13.497Z,16.20
2023-11-23T13:03:46.855Z,15.48
2023-11-23T13:06:21.475Z,14.85
2023-11-23T13:08:54.596Z,14.35
2023-11-23T13:11:27.741Z,13.48
2023-11-23T13:14:00.809Z,12.45
2023-11-23T13:16:33.921Z,12.27
2023-11-23T13:19:17.086Z,12.18
2023-11-23T13:22:02.272Z,11.75
2023-11-23T13:24:37.819Z,12.07
2023-11-23T13:27:13.467Z,11.70
2023-11-23T13:29:46.643Z,10.85
2023-11-23T13:32:20.588Z,11.45
2023-11-23T13:34:55.299Z,12.13
2023-11-23T13:37:29.958Z,11.32
2023-11-23T13:40:07.756Z,10.10
2023-11-23T13:42:42.350Z,11.32
2023-11-23T13:45:17.638Z,11.23
2023-11-23T13:47:52.385Z,11.10
2023-11-23T13:50:26.891Z,10.00
2023-11-23T13:53:02.330Z,10.32
2023-11-23T13:55:36.934Z,10.73
2023-11-23T13:58:10.004Z,9.70
2023-11-23T14:00:44.401Z,10.85
2023-11-23T14:03:18.007Z,9.80
2023-11-23T14:05:51.187Z,9.82
2023-11-23T14:08:25.598Z,9.35
2023-11-23T14:10:58.758Z,9.70
2023-11-23T14:13:31.976Z,9.50
2023-11-23T14:16:07.413Z,9.85
2023-11-23T14:18:42.927Z,8.80
2023-11-23T14:21:16.153Z,8.57
2023-11-23T14:23:51.203Z,8.52
2023-11-23T14:26:24.308Z,9.50
2023-11-23T14:28:57.403Z,8.27
2023-11-23T14:31:33.795Z,8.95
2023-11-23T14:34:07.264Z,7.68
2023-11-23T14:36:42.216Z,7.25
2023-11-23T14:39:18.557Z,7.82
2023-11-23T14:41:51.788Z,7.00
2023-11-23T14:44:25.220Z,8.05
2023-11-23T14:46:58.454Z,7.90
2023-11-23T14:49:31.861Z,8.40
2023-11-23T14:52:05.263Z,7.50
2023-11-23T14:54:40.084Z,7.30
2023-11-23T14:57:13.231Z,8.05
2023-11-23T14:59:46.416Z,7.07
2023-11-23T15:02:19.752Z,7.00
2023-11-23T15:04:52.899Z,7.75
2023-11-23T15:07:26.387Z,6.72
2023-11-23T15:10:00.778Z,6.60
2023-11-23T15:12:33.982Z,7.15
2023-11-23T15:15:08.631Z,6.55
2023-11-23T15:17:42.173Z,7.05
2023-11-23T15:20:15.474Z,6.50
2023-11-23T15:22:48.854Z,6.28
2023-11-23T15:25:23.312Z,6.13
2023-11-23T15:27:56.645Z,5.72
2023-11-23T15:30:30.163Z,6.18
2023-11-23T15:33:03.899Z,6.15
2023-11-23T15:38:12.096Z,5.57
2023-11-23T15:40:46.591Z,5.63
2023-11-23T15:43:20.063Z,5.60
2023-11-23T15:45:53.316Z,4.72
2023-11-23T15:48:26.419Z,4.90
2023-11-23T15:51:00.224Z,5.20
2023-11-23T15:56:09.009Z,5.28
2023-11-23T15:58:42.112Z,5.18
2023-11-23T16:01:15.222Z,5.22
2023-11-23T16:03:48.548Z,4.65
2023-11-23T16:06:21.876Z,5.28
2023-11-23T16:08:58.435Z,4.78
2023-11-23T16:11:33.082Z,4.88
2023-11-23T16:14:08.181Z,4.82
2023-11-23T16:16:42.214Z,5.05
2023-11-23T16:19:15.351Z,5.00
2023-11-23T16:21:48.435Z,5.15
2023-11-23T16:24:21.963Z,4.47
2023-11-23T16:26:56.415Z,4.07
2023-11-23T16:29:29.540Z,4.82
2023-11-23T16:32:02.631Z,4.22
2023-11-23T16:34:35.821Z,4.47
2023-11-23T16:37:11.406Z,4.60
2023-11-23T16:39:45.268Z,4.75
2023-11-23T16:42:19.785Z,4.03
2023-11-23T16:44:52.904Z,4.35
2023-11-23T16:47:26.002Z,4.93
2023-11-23T16:50:01.102Z,5.10
2023-11-23T16:52:34.975Z,4.70
2023-11-23T16:55:09.406Z,4.43
2023-11-23T16:57:44.109Z,4.78
2023-11-23T17:00:18.823Z,4.13
2023-11-23T17:02:52.040Z,4.53
2023-11-23T17:05:25.152Z,4.70
2023-11-23T17:07:58.456Z,4.53
2023-11-23T17:10:31.530Z,3.92
2023-11-23T17:13:07.369Z,4.80
2023-11-23T17:15:40.627Z,4.07
2023-11-23T17:18:14.442Z,4.30
2023-11-23T17:23:20.832Z,3.88
2023-11-23T17:25:53.923Z,4.38
2023-11-23T17:28:28.381Z,4.00
2023-11-23T17:31:03.628Z,3.78
2023-11-23T17:33:38.082Z,3.88
2023-11-23T17:36:11.402Z,4.70
2023-11-23T17:38:45.699Z,3.75
2023-11-23T17:41:18.935Z,4.15
2023-11-23T17:43:53.420Z,4.22
2023-11-23T17:46:26.953Z,4.63
2023-11-23T17:49:00.097Z,3.83
2023-11-23T17:51:33.595Z,4.03
2023-11-23T17:54:07.425Z,4.05
2023-11-23T17:59:26.172Z,3.88
2023-11-23T18:02:08.038Z,5.50
2023-11-23T18:04:41.135Z,3.97
2023-11-23T18:07:14.233Z,4.07
2023-11-23T18:09:47.816Z,4.65
2023-11-23T18:12:21.332Z,4.93
2023-11-23T18:14:55.818Z,6.20
2023-11-23T18:17:28.978Z,4.43
2023-11-23T18:20:02.099Z,4.50
2023-11-23T18:22:35.279Z,4.20
2023-11-23T18:25:09.054Z,4.15
2023-11-23T18:27:42.498Z,4.68
2023-11-23T18:30:17.636Z,4.63
2023-11-23T18:32:50.735Z,4.75
2023-11-23T18:35:24.689Z,4.95
2023-11-23T18:37:57.806Z,4.85
2023-11-23T18:40:31.392Z,4.22
2023-11-23T18:43:05.099Z,4.18
2023-11-23T18:48:16.034Z,5.25
2023-11-23T18:50:49.514Z,4.55
2023-11-23T18:53:22.709Z,5.55
2023-11-23T18:55:56.303Z,3.97
2023-11-23T19:01:04.345Z,4.95
2023-11-23T19:03:37.959Z,4.85
2023-11-23T19:06:11.092Z,5.18
2023-11-23T19:08:44.217Z,4.28
2023-11-23T19:11:17.271Z,4.38
2023-11-23T19:13:50.607Z,4.13
2023-11-23T19:19:01.091Z,4.18
2023-11-23T19:21:35.691Z,4.43
2023-11-23T19:24:10.303Z,5.03
2023-11-23T19:26:44.076Z,4.28
2023-11-23T19:29:17.701Z,4.18
2023-11-23T19:31:53.281Z,4.47
2023-11-23T19:34:27.350Z,4.45
2023-11-23T19:37:01.283Z,4.72
2023-11-23T19:39:35.135Z,4.97
2023-11-23T19:42:09.765Z,4.85
2023-11-23T19:44:43.549Z,4.65
2023-11-23T19:49:52.001Z,5.07
2023-11-23T19:52:29.190Z,5.13
2023-11-23T19:55:03.933Z,4.10
2023-11-23T19:57:37.671Z,4.68
2023-11-23T20:02:47.421Z,4.75
2023-11-23T20:05:20.762Z,4.07
2023-11-23T20:07:54.765Z,4.10
2023-11-23T20:10:27.846Z,4.22
2023-11-23T20:13:00.900Z,4.00
2023-11-23T20:15:34.244Z,4.72
2023-11-23T20:18:08.930Z,5.40
2023-11-23T20:20:42.296Z,3.65
2023-11-23T20:23:15.360Z,3.95
2023-11-23T20:25:48.564Z,4.45
2023-11-23T20:28:22.283Z,4.28
2023-11-23T20:33:29.875Z,3.78
2023-11-23T20:36:03.306Z,3.58
2023-11-23T20:38:43.638Z,3.83
2023-11-23T20:41:17.962Z,3.90
2023-11-23T20:43:52.084Z,3.70
2023-11-23T20:46:25.461Z,4.70
2023-11-23T20:49:01.978Z,4.07
2023-11-23T20:51:37.118Z,3.78
2023-11-23T20:54:10.214Z,3.92
2023-11-23T20:56:44.621Z,3.70
2023-11-23T20:59:18.325Z,4.47
2023-11-23T21:01:52.962Z,3.97
2023-11-23T21:04:31.080Z,3.75
2023-11-23T21:07:08.655Z,4.10
2023-11-23T21:09:42.452Z,3.20
2023-11-23T21:15:01.934Z,3.88
2023-11-23T21:17:53.800Z,3.13
2023-11-23T21:20:29.242Z,3.78
2023-11-23T21:23:02.734Z,3.72
2023-11-23T21:25:38.137Z,3.88
2023-11-23T21:28:11.806Z,3.65
2023-11-23T21:30:45.043Z,4.05
2023-11-23T21:33:19.075Z,3.55
2023-11-23T21:35:53.663Z,3.22
2023-11-23T21:38:26.741Z,3.28
2023-11-23T21:40:59.790Z,3.65
2023-11-23T21:43:32.939Z,4.47
2023-11-23T21:46:06.056Z,3.90
2023-11-23T21:48:39.162Z,3.70
2023-11-23T21:51:20.024Z,3.67
2023-11-23T21:53:53.191Z,3.38
2023-11-23T21:56:26.421Z,3.70
2023-11-23T21:58:59.550Z,3.45
2023-11-23T22:01:34.880Z,3.90
2023-11-23T22:04:08.328Z,4.00
2023-11-23T22:06:42.803Z,2.88
2023-11-23T22:09:15.889Z,3.67
2023-11-23T22:11:51.535Z,4.07
2023-11-23T22:14:25.118Z,4.10
2023-11-23T22:16:59.642Z,3.25
2023-11-23T22:19:33.295Z,3.25
2023-11-23T22:22:10.191Z,3.65
2023-11-23T22:24:44.352Z,3.38
2023-11-23T22:27:18.122Z,3.58
2023-11-23T22:29:51.615Z,3.45
2023-11-23T22:32:28.280Z,3.75
2023-11-23T22:35:01.936Z,3.50
2023-11-23T22:37:37.128Z,3.95
2023-11-23T22:40:11.431Z,3.92
2023-11-23T22:42:45.063Z,3.42
2023-11-23T22:45:18.959Z,3.47
2023-11-23T22:47:52.115Z,2.60
2023-11-23T22:50:25.235Z,3.13
2023-11-23T22:52:59.660Z,2.88
2023-11-23T22:55:32.919Z,3.92
2023-11-23T22:58:05.987Z,3.10
2023-11-23T23:00:39.566Z,3.13
2023-11-23T23:03:13.453Z,3.65
2023-11-23T23:10:56.697Z,3.30
2023-11-23T23:13:29.756Z,3.10
2023-11-23T23:16:02.893Z,2.75
2023-11-23T23:18:36.433Z,3.05
2023-11-23T23:21:09.542Z,3.17
2023-11-23T23:23:44.117Z,2.72
2023-11-23T23:26:17.232Z,2.80
2023-11-23T23:28:50.795Z,3.13
2023-11-23T23:31:23.927Z,2.90
2023-11-23T23:33:57.250Z,2.90
2023-11-23T23:36:30.398Z,3.30
2023-11-23T23:39:05.005Z,2.80
2023-11-23T23:41:38.317Z,2.80
2023-11-23T23:44:11.381Z,2.90
2023-11-23T23:46:44.480Z,2.05
2023-11-23T23:49:18.481Z,2.90
2023-11-23T23:51:52.408Z,2.63
2023-11-23T23:54:26.856Z,3.30
2023-11-23T23:57:00.021Z,2.60
2023-11-23T23:59:33.230Z,2.47
